• Join FlightAware (Why Join?)
  • Login
  • US Flag 
05:02AM EDT


 

Airport Tracker/Info


-or-


 

Live Flight TrackerFlight Track Log ✈ SKW6492 ✈ 12-May-2013 ✈ KAUS - KDEN

Flight Track Log - Related Links

Times and Time Zones

All times are in EDT time to prevent confusion due to time zone crossing. See the SKW6492 flight status page for this flight to view local times or setup timezone preferences in your user account.

Time Position Orientation Groundspeed Altitude Reporting Facility
EDT Latitude Longitude Course Direction KTS MPH feet Rate Location/Type
04:34PM 30.3300 -97.7064 291° West 215 247 6,300  Level Houston Center
04:35PM 30.4462 -97.7519 293° West  Level FlightAware Approximate
04:35PM 30.3633 -97.7775 299° West 246 283 9,200  Level Houston Center
04:36PM 30.4900 -97.8723 293° West  Level FlightAware Approximate
04:36PM 30.3958 -97.8528 297° West 253 291 11,000  Level Houston Center
04:37PM 30.5314 -97.9939 291° West  Level FlightAware Approximate
04:37PM 30.4347 -97.9411 297° West 297 342 13,500  Level Houston Center
04:38PM 30.5721 -98.1159 291° West  Level FlightAware Approximate
04:38PM 30.4742 -98.0308 297° West 307 353 16,100  Level Houston Center
04:39PM 30.6127 -98.2380 291° West  Level FlightAware Approximate
04:39PM 30.5136 -98.1228 296° West 313 360 18,100  Level Houston Center
04:40PM 30.5606 -98.2350 296° West 326 375 20,500 2,040 Climbing Houston Center
04:41PM 30.6028 -98.3333 297° West 335 386 22,400 1,800 Climbing Houston Center
04:42PM 30.6469 -98.4347 297° West 345 397 24,300 1,680 Climbing Houston Center
04:43PM 30.6908 -98.5369 297° West 349 402 25,900 1,560 Climbing Houston Center
04:44PM 30.7361 -98.6417 297° West 356 410 27,600 1,320 Climbing Houston Center
04:45PM 30.7806 -98.7475 296° West 361 415 28,700 1,020 Climbing Houston Center
04:46PM 30.8622 -98.8281 320° Northwest 392 451 29,800 1,140 Climbing Houston Center
04:47PM 30.9639 -98.8914 332° Northwest 408 470 31,100 1,560 Climbing Houston Center
04:48PM 31.0800 -98.9636 332° Northwest 402 463 33,100 1,440 Climbing Houston Center
04:49PM 31.1747 -99.0242 331° Northwest 389 448 34,100 540 Climbing Houston Center
04:50PM 31.2742 -99.0878 331° Northwest 399 459 34,300 420 Climbing Houston Center
04:51PM 31.3778 -99.1539 331° Northwest 414 476 35,000 600 Climbing Houston Center
04:52PM 31.4831 -99.2200 332° Northwest 422 486 35,600 720 Climbing Houston Center
04:53PM 31.5867 -99.2853 332° Northwest 420 483 36,500 720 Climbing Houston Center
04:54PM 31.6908 -99.3506 332° Northwest 419 482 37,200 720 Climbing Houston Center
04:55PM 31.7936 -99.4178 331° Northwest 418 481 38,000 360 Climbing Houston Center
04:56PM 31.9139 -99.4944 332° Northwest 415 478 38,000  Level Houston Center
04:57PM 32.0125 -99.5578 331° Northwest 410 472 38,000  Level Houston Center
04:59PM 32.1169 -99.6258 331° Northwest 413 475 38,000  Level Houston Center
04:59PM 32.2178 -99.6922 331° Northwest 411 473 38,000  Level Fort Worth Center
05:00PM 32.3064 -99.7508 331° Northwest 411 473 38,000  Level Fort Worth Center
05:01PM 32.4075 -99.8150 332° Northwest 411 473 38,000  Level Fort Worth Center
05:02PM 32.5042 -99.8817 330° Northwest 411 473 38,000  Level Fort Worth Center
05:03PM 32.6156 -99.9561 331° Northwest 411 473 38,000  Level Fort Worth Center
05:04PM 32.7247 -100.0211 333° Northwest 416 479 38,000  Level Fort Worth Center
05:05PM 32.8175 -100.0831 331° Northwest 421 484 38,000  Level Fort Worth Center
05:06PM 32.9183 -100.1456 333° Northwest 415 478 38,000  Level Fort Worth Center
05:07PM 33.0211 -100.2131 331° Northwest 415 478 38,000  Level Fort Worth Center
05:08PM 33.1303 -100.2861 331° Northwest 415 478 38,000  Level Fort Worth Center
05:09PM 33.2331 -100.3514 332° Northwest 415 478 38,000  Level Fort Worth Center
05:10PM 33.3358 -100.4169 332° Northwest 415 478 38,000  Level Fort Worth Center
05:11PM 33.4386 -100.4853 331° Northwest 415 478 38,000  Level Fort Worth Center
05:12PM 33.5414 -100.5511 332° Northwest 415 478 38,000  Level Fort Worth Center
05:13PM 33.6417 -100.6219 330° Northwest 410 472 38,000  Level Fort Worth Center
05:14PM 33.7442 -100.6908 331° Northwest 410 472 38,000  Level Fort Worth Center
05:17PM 33.9494 -100.8236 332° Northwest 423 487 38,000  Level Albuquerque Center
05:18PM 34.0533 -100.8911 332° Northwest 423 487 38,000  Level Albuquerque Center
05:19PM 34.1761 -100.9744 331° Northwest 423 487 38,000  Level Albuquerque Center
05:20PM 34.2783 -101.0442 331° Northwest 422 486 38,000  Level Albuquerque Center
05:21PM 34.3819 -101.1133 331° Northwest 423 487 38,000  Level Albuquerque Center
05:22PM 34.4839 -101.1831 331° Northwest 422 486 38,000  Level Albuquerque Center
05:23PM 34.5858 -101.2522 331° Northwest 421 484 38,000  Level Albuquerque Center
05:24PM 34.6886 -101.3219 331° Northwest 422 486 38,000  Level Albuquerque Center
05:25PM 34.7919 -101.3925 331° Northwest 425 489 38,000  Level Albuquerque Center
05:26PM 34.9144 -101.4767 331° Northwest 423 487 38,000  Level Albuquerque Center
05:27PM 35.0225 -101.5506 331° Northwest 428 493 38,000  Level Albuquerque Center
05:28PM 35.1258 -101.6225 330° Northwest 429 494 38,000  Level Albuquerque Center
05:29PM 35.2297 -101.6925 331° Northwest 427 491 38,000  Level Albuquerque Center
05:30PM 35.3400 -101.7456 339° North 423 487 38,000  Level Albuquerque Center
05:31PM 35.4467 -101.7956 339° North 415 478 38,000  Level Albuquerque Center
05:32PM 35.5581 -101.8472 339° North 415 478 38,000  Level Albuquerque Center
05:33PM 35.6639 -101.8969 339° North 409 471 38,000  Level Albuquerque Center
05:34PM 35.7694 -101.9458 339° North 406 467 38,000  Level Albuquerque Center
05:35PM 35.8747 -101.9944 339° North 405 466 38,000  Level Albuquerque Center
05:36PM 35.9786 -102.0436 339° North 402 463 38,000  Level Albuquerque Center
05:37PM 36.1036 -102.1014 340° North 399 459 38,000  Level Albuquerque Center
05:38PM 36.2058 -102.1500 339° North 395 455 38,000  Level Albuquerque Center
05:39PM 36.3089 -102.1981 339° North 395 455 38,000 -300 Level Albuquerque Center
05:40PM 36.4103 -102.2467 339° North 392 451 37,400 -840 Descending Albuquerque Center
05:41PM 36.5108 -102.2944 339° North 390 449 36,400 -720 Descending Albuquerque Center
05:42PM 36.6056 -102.3386 339° North 370 426 36,000 -240 Descending Albuquerque Center
05:43PM 36.6994 -102.3836 339° North 362 417 36,000  Level Albuquerque Center
05:44PM 36.8125 -102.4375 339° North 363 418 36,000  Level Albuquerque Center
05:45PM 36.9028 -102.4808 339° North 367 422 36,000  Level Albuquerque Center
05:46PM 37.0103 -102.5317 339° North 368 423 36,000  Level Albuquerque Center
05:47PM 37.1008 -102.5781 338° Northwest 369 425 36,000  Level Albuquerque Center
05:48PM 37.1919 -102.6222 339° North 367 422 36,000  Level Albuquerque Center
05:49PM 37.3014 -102.6733 340° North 372 428 36,000  Level Albuquerque Center
05:51PM 37.3950 -102.7189 339° North 375 432 36,000  Level Albuquerque Center
05:51PM 37.4256 -102.7336 339° North 376 433 36,000  Level Denver Center
05:52PM 37.5342 -102.7836 340° North 374 430 36,000  Level Denver Center
05:53PM 37.6306 -102.8139 346° North 373 429 36,000  Level Denver Center
05:54PM 37.7422 -102.8483 346° North 371 427 36,000  Level Denver Center
05:55PM 37.8394 -102.8800 346° North 374 430 36,000 -60 Level Denver Center
05:56PM 37.9194 -102.9056 346° North 374 430 35,900 -780 Descending Denver Center
05:57PM 38.0478 -102.9456 346° North 362 417 34,500 -960 Descending Denver Center
05:58PM 38.1389 -102.9744 346° North 356 410 34,000 -300 Descending Denver Center
05:59PM 38.2508 -103.0106 346° North 370 426 34,000  Level Denver Center
06:00PM 38.3425 -103.0706 333° Northwest 395 455 34,000  Level Denver Center
06:01PM 38.4236 -103.1611 319° Northwest 404 465 34,000  Level Denver Center
06:02PM 38.5206 -103.2706 319° Northwest 415 478 34,000  Level Denver Center
06:03PM 38.6125 -103.3739 319° Northwest 413 475 34,000 -360 Level Denver Center
06:04PM 38.6964 -103.4706 318° Northwest 421 484 33,300 -2,040 Descending Denver Center
06:05PM 38.7947 -103.5836 318° Northwest 426 490 29,900 -3,060 Descending Denver Center
06:06PM 38.8781 -103.6781 319° Northwest 420 483 27,000 -2,820 Descending Denver Center
06:07PM 38.9606 -103.7736 318° Northwest 418 481 24,100 -3,000 Descending Denver Center
06:08PM 39.0553 -103.8847 318° Northwest 414 476 20,800 -3,060 Descending Denver Center
06:09PM 39.1358 -103.9769 318° Northwest 410 472 17,900 -1,860 Descending Denver Center
06:10PM 39.2194 -104.0761 317° Northwest 384 442 17,000 -480 Descending Denver Center
06:11PM 39.2675 -104.1628 306° West 308 354 17,000 -660 Level Denver Center
06:12PM 39.2944 -104.2756 287° West 306 352 15,700 -1,500 Descending Denver Center
06:13PM 39.3178 -104.3797 286° West 303 349 14,000 -960 Descending Denver Center
06:15PM 39.3378 -104.4689 286° West 265 305 13,800 -780 Descending Denver Center
06:16PM 39.3578 -104.5556 287° West 238 274 12,500 -1,200 Descending Denver Center
06:17PM 39.3856 -104.6328 295° West 248 285 11,400 -1,020 Descending Denver Center
06:18PM 39.4514 -104.6642 340° North 250 288 10,400 -720 Descending Denver Center
06:19PM 39.5264 -104.6642 360° North 252 290 10,000 -240 Descending Denver Center
06:20PM 39.5825 -104.6631 North 207 238 10,000 -480 Level Denver Center
06:21PM 39.6431 -104.6633 360° North 203 234 9,100 -900 Descending Denver Center
06:22PM 39.6936 -104.6625 North 186 214 8,200 -900 Descending Denver Center